Time;durP1;ratioP1;P1;durP2;ratioP2;P2;SDS_P1;SDS_P2;PMS_P1;PMS_P2;Temp;Humidity;BMP_temperature;BMP_pressure;BME280_temperature;BME280_humidity;BME280_pressure;Samples;Min_cycle;Max_cycle;Signal;HPM_P1;HPM_P2
2021/01/11 00:01:25;;;;;;;;;;;;;;;-7.09;100.00;96872.50;5072441;28;19943;-44
2021/01/11 00:03:52;;;;;;;;;;;;;;;-7.16;100.00;96870.94;5070384;28;19920;-44
2021/01/11 00:06:19;;;;;;;;;;;;;;;-7.29;100.00;96877.16;5077019;28;19919;-44
2021/01/11 00:08:46;;;;;;;;;;;;;;;-7.29;100.00;96880.56;5082899;28;19920;-44
2021/01/11 00:11:13;;;;;;;;;;;;;;;-7.36;100.00;96879.00;5076299;28;19924;-43
2021/01/11 00:13:41;;;;;;;;;;;;;;;-7.28;100.00;96878.84;5074922;28;19920;-49
2021/01/11 00:16:10;;;;;;;;;;;;;;;-7.42;100.00;96876.53;5071789;28;20455;-45
2021/01/11 00:18:38;;;;;;;;;;;;;;;-7.39;100.00;96880.75;5073422;28;20389;-43
2021/01/11 00:21:05;;;;;;;;;;;;;;;-7.54;100.00;96880.13;5076179;28;19927;-44
2021/01/11 00:23:50;;;;;;;;;;;;;;;-7.50;100.00;96881.78;5074824;28;19965;-45
2021/01/11 00:26:17;;;;;;;;;;;;;;;-7.68;100.00;96885.44;5068147;28;20280;-42
2021/01/11 00:28:44;;;;;;;;;;;;;;;-7.70;100.00;96881.25;5074535;28;19924;-46
2021/01/11 00:31:11;;;;;;;;;;;;;;;-7.76;100.00;96883.91;5060672;28;20426;-42
2021/01/11 00:33:39;;;;;;;;;;;;;;;-7.89;100.00;96878.94;5074902;28;19935;-46
2021/01/11 00:36:11;;;;;;;;;;;;;;;-7.86;100.00;96874.66;5073684;28;19920;-46
2021/01/11 00:38:37;;;;;;;;;;;;;;;-8.08;100.00;96877.53;5075732;28;19944;-45
2021/01/11 00:41:04;;;;;;;;;;;;;;;-7.91;100.00;96864.50;5068834;28;19928;-46
2021/01/11 00:43:31;;;;;;;;;;;;;;;-7.87;100.00;96873.81;5077043;28;19974;-47
2021/01/11 00:45:58;;;;;;;;;;;;;;;-7.89;100.00;96871.28;5082814;28;19923;-43
2021/01/11 00:51:42;;;;;;;;;;;;;;;-8.22;100.00;96876.91;5072205;22;19952;-46
2021/01/11 00:54:09;;;;;;;;;;;;;;;-8.24;100.00;96876.91;5022100;28;20014;-51
2021/01/11 00:56:37;;;;;;;;;;;;;;;-8.32;100.00;96877.88;5038962;28;19921;-48
2021/01/11 00:59:10;;;;;;;;;;;;;;;-8.22;100.00;96884.56;5018904;28;19928;-49
2021/01/11 01:01:38;;;;;;;;;;;;;;;-8.15;100.00;96887.03;5012489;28;20016;-50
2021/01/11 01:04:05;;;;;;;;;;;;;;;-8.25;100.00;96882.88;5022426;28;19935;-50
2021/01/11 01:06:32;;;;;;;;;;;;;;;-8.25;100.00;96882.06;5024505;28;20028;-47
2021/01/11 01:09:00;;;;;;;;;;;;;;;-8.32;100.00;96891.50;5027247;28;19976;-48
2021/01/11 01:11:27;;;;;;;;;;;;;;;-8.40;100.00;96889.06;5028613;28;20016;-46
2021/01/11 01:13:54;;;;;;;;;;;;;;;-8.54;100.00;96883.28;5037371;28;20310;-47
2021/01/11 01:16:28;;;;;;;;;;;;;;;-8.53;100.00;96884.13;5038386;28;19961;-51
2021/01/11 01:18:55;;;;;;;;;;;;;;;-8.55;100.00;96884.16;5028953;28;20991;-45
2021/01/11 01:21:21;;;;;;;;;;;;;;;-8.54;100.00;96892.66;5018784;28;19937;-49
2021/01/11 01:23:48;;;;;;;;;;;;;;;-8.71;100.00;96895.41;5010203;28;19949;-48
2021/01/11 01:26:16;;;;;;;;;;;;;;;-8.79;100.00;96892.97;5014501;28;19922;-46
2021/01/11 01:28:42;;;;;;;;;;;;;;;-8.71;100.00;96893.72;5011412;28;20306;-46
2021/01/11 01:31:09;;;;;;;;;;;;;;;-8.63;100.00;96893.63;5016460;28;20450;-47
2021/01/11 01:33:37;;;;;;;;;;;;;;;-8.71;100.00;96892.88;5019068;28;20346;-49
2021/01/11 01:36:04;;;;;;;;;;;;;;;-8.69;100.00;96896.25;5040942;28;19978;-49
2021/01/11 01:38:30;;;;;;;;;;;;;;;-8.67;99.85;96889.41;5024346;28;20016;-48
2021/01/11 01:40:57;;;;;;;;;;;;;;;-8.94;99.21;96888.88;5026128;28;19928;-51
2021/01/11 01:43:25;;;;;;;;;;;;;;;-9.11;99.69;96890.75;5025692;28;20302;-50
2021/01/11 01:45:52;;;;;;;;;;;;;;;-9.29;99.04;96896.88;5034505;28;19974;-52
2021/01/11 01:48:19;;;;;;;;;;;;;;;-9.40;99.05;96894.41;5024120;28;19917;-51
2021/01/11 01:50:45;;;;;;;;;;;;;;;-9.12;99.81;96894.16;5012840;28;19978;-52
2021/01/11 01:53:12;;;;;;;;;;;;;;;-9.31;99.15;96901.16;5035132;28;20013;-52
2021/01/11 01:55:39;;;;;;;;;;;;;;;-9.02;99.90;96890.66;5038177;28;19921;-49
2021/01/11 01:58:06;;;;;;;;;;;;;;;-8.89;98.68;96881.16;5015913;28;19925;-47
2021/01/11 02:00:33;;;;;;;;;;;;;;;-8.71;98.46;96882.63;5016263;28;19967;-49
2021/01/11 02:03:01;;;;;;;;;;;;;;;-8.77;96.83;96883.56;5046678;28;19924;-46
2021/01/11 02:05:28;;;;;;;;;;;;;;;-8.74;97.63;96883.53;5047865;28;19920;-47
2021/01/11 02:07:57;;;;;;;;;;;;;;;-8.63;96.21;96889.38;5053291;28;19982;-46
2021/01/11 02:10:26;;;;;;;;;;;;;;;-8.55;97.07;96868.81;5048208;28;19920;-49
2021/01/11 02:13:10;;;;;;;;;;;;;;;-8.71;98.58;96875.81;5051619;28;19920;-48
2021/01/11 02:15:39;;;;;;;;;;;;;;;-8.68;97.11;96877.50;5048097;28;20305;-49
2021/01/11 02:18:07;;;;;;;;;;;;;;;-8.87;96.49;96875.16;5051498;28;19924;-46
2021/01/11 02:20:43;;;;;;;;;;;;;;;-8.82;96.16;96872.53;5049814;28;19952;-46
2021/01/11 02:23:31;;;;;;;;;;;;;;;-8.65;97.44;96864.69;5050245;28;19955;-49
2021/01/11 02:26:02;;;;;;;;;;;;;;;-8.58;96.48;96861.19;5043960;28;19921;-49
2021/01/11 02:28:38;;;;;;;;;;;;;;;-8.49;95.83;96868.75;5049905;28;20601;-46
2021/01/11 02:31:05;;;;;;;;;;;;;;;-8.56;96.73;96866.28;5047891;28;19987;-46
2021/01/11 02:33:32;;;;;;;;;;;;;;;-8.51;96.61;96873.03;5053163;28;20108;-48
2021/01/11 02:36:00;;;;;;;;;;;;;;;-8.36;95.74;96869.41;5051132;28;20352;-47
2021/01/11 02:38:27;;;;;;;;;;;;;;;-8.53;95.78;96863.66;5051750;28;19928;-48
2021/01/11 02:40:54;;;;;;;;;;;;;;;-8.42;96.81;96859.28;5046971;28;19928;-48
2021/01/11 02:43:20;;;;;;;;;;;;;;;-8.22;95.93;96859.00;5055029;28;20621;-55
2021/01/11 02:45:47;;;;;;;;;;;;;;;-8.36;95.82;96861.75;5059904;28;19955;-50
2021/01/11 02:48:15;;;;;;;;;;;;;;;-8.44;96.69;96858.44;5057762;28;19921;-47
2021/01/11 02:50:46;;;;;;;;;;;;;;;-8.40;96.43;96853.25;5044848;28;20005;-46
2021/01/11 02:53:17;;;;;;;;;;;;;;;-8.33;96.31;96853.16;5057561;28;20010;-47
2021/01/11 02:55:45;;;;;;;;;;;;;;;-8.26;96.02;96860.72;5047691;28;20330;-50
2021/01/11 02:58:14;;;;;;;;;;;;;;;-8.30;96.20;96859.06;5052030;28;19951;-52
2021/01/11 03:00:41;;;;;;;;;;;;;;;-8.18;96.48;96864.03;5048616;28;19960;-48
2021/01/11 03:03:09;;;;;;;;;;;;;;;-7.99;96.56;96854.38;5053621;28;20307;-52
2021/01/11 03:05:36;;;;;;;;;;;;;;;-8.08;96.36;96862.19;5048444;28;19920;-47
2021/01/11 03:08:03;;;;;;;;;;;;;;;-7.93;96.28;96866.22;5048971;28;20398;-46
2021/01/11 03:10:30;;;;;;;;;;;;;;;-8.07;97.08;96870.72;5051477;28;19922;-46
2021/01/11 03:12:56;;;;;;;;;;;;;;;-7.96;97.38;96872.22;5055706;28;19928;-46
2021/01/11 03:15:23;;;;;;;;;;;;;;;-7.99;98.11;96864.59;5055510;28;19921;-46
2021/01/11 03:17:50;;;;;;;;;;;;;;;-7.87;98.49;96868.72;5047319;28;19960;-46
2021/01/11 03:20:17;;;;;;;;;;;;;;;-7.76;97.58;96871.94;5059271;28;19920;-48
2021/01/11 03:22:44;;;;;;;;;;;;;;;-7.84;97.27;96873.78;5046458;28;19932;-50
2021/01/11 03:25:11;;;;;;;;;;;;;;;-7.81;97.28;96868.63;5053419;28;19924;-48
2021/01/11 03:27:38;;;;;;;;;;;;;;;-7.85;98.22;96874.63;5047412;28;19921;-47
2021/01/11 03:30:05;;;;;;;;;;;;;;;-7.81;97.13;96877.97;5057104;28;19920;-46
2021/01/11 03:32:32;;;;;;;;;;;;;;;-7.83;96.48;96870.34;5045546;28;20391;-49
2021/01/11 03:34:59;;;;;;;;;;;;;;;-7.93;98.52;96868.78;5052032;28;19920;-47
2021/01/11 03:37:26;;;;;;;;;;;;;;;-7.81;99.57;96873.75;5051828;28;19920;-46
2021/01/11 03:39:53;;;;;;;;;;;;;;;-7.66;98.46;96870.09;5059092;28;19920;-47
2021/01/11 03:42:20;;;;;;;;;;;;;;;-7.86;99.35;96867.81;5049349;28;19931;-46
2021/01/11 03:44:47;;;;;;;;;;;;;;;-7.81;99.08;96870.31;5058346;28;20389;-51
2021/01/11 03:47:14;;;;;;;;;;;;;;;-7.88;99.34;96867.00;5049816;28;19921;-51
2021/01/11 03:49:40;;;;;;;;;;;;;;;-7.74;100.00;96857.41;5052890;28;20044;-46
2021/01/11 03:52:07;;;;;;;;;;;;;;;-7.80;99.94;96860.06;5050241;28;20354;-48
2021/01/11 03:54:34;;;;;;;;;;;;;;;-7.74;100.00;96849.72;5052988;28;19920;-46
2021/01/11 03:57:01;;;;;;;;;;;;;;;-7.65;99.59;96851.28;5057440;28;19943;-46
2021/01/11 03:59:28;;;;;;;;;;;;;;;-7.60;99.75;96846.94;5060547;28;20011;-46
2021/01/11 04:01:55;;;;;;;;;;;;;;;-7.63;100.00;96852.13;5059321;28;20566;-48
2021/01/11 04:04:22;;;;;;;;;;;;;;;-7.49;99.66;96845.03;5049524;28;19928;-46
2021/01/11 04:06:52;;;;;;;;;;;;;;;-7.57;99.75;96841.78;5054988;28;19982;-49
2021/01/11 04:09:19;;;;;;;;;;;;;;;-7.57;99.62;96839.22;5052948;28;20395;-46
2021/01/11 04:11:46;;;;;;;;;;;;;;;-7.56;98.98;96833.22;5057360;28;19956;-46
2021/01/11 04:14:13;;;;;;;;;;;;;;;-7.74;99.85;96836.06;5049377;28;19921;-47
2021/01/11 04:16:40;;;;;;;;;;;;;;;-7.91;99.89;96836.34;5050545;28;19925;-46
2021/01/11 04:19:08;;;;;;;;;;;;;;;-8.01;100.00;96834.81;5056168;28;19948;-47
2021/01/11 04:21:35;;;;;;;;;;;;;;;-8.01;98.74;96827.13;5063656;28;20549;-46
2021/01/11 04:24:02;;;;;;;;;;;;;;;-8.04;100.00;96828.00;5061561;28;19924;-46
2021/01/11 04:26:29;;;;;;;;;;;;;;;-8.07;99.96;96843.41;5060145;28;19963;-49
2021/01/11 04:28:56;;;;;;;;;;;;;;;-7.84;98.43;96839.66;5052299;28;19921;-49
2021/01/11 04:31:23;;;;;;;;;;;;;;;-7.90;97.93;96840.59;5055005;28;20440;-49
2021/01/11 04:33:50;;;;;;;;;;;;;;;-8.10;98.42;96843.44;5054780;28;20410;-46
2021/01/11 04:36:17;;;;;;;;;;;;;;;-8.00;98.30;96842.44;5053654;28;19920;-47
2021/01/11 04:38:44;;;;;;;;;;;;;;;-8.06;98.45;96851.94;5055573;28;20409;-52
2021/01/11 04:41:11;;;;;;;;;;;;;;;-8.06;97.77;96849.38;5048218;28;20353;-50
2021/01/11 04:43:40;;;;;;;;;;;;;;;-8.18;97.65;96848.69;5055924;28;20015;-47
2021/01/11 04:46:07;;;;;;;;;;;;;;;-8.03;97.87;96839.94;5054524;28;20418;-52
2021/01/11 04:48:34;;;;;;;;;;;;;;;-7.99;97.40;96841.56;5059263;28;20031;-46
2021/01/11 04:51:01;;;;;;;;;;;;;;;-8.02;98.24;96838.22;5053086;28;19924;-49
2021/01/11 04:53:28;;;;;;;;;;;;;;;-7.87;98.64;96843.09;5059117;28;19920;-46
2021/01/11 04:55:58;;;;;;;;;;;;;;;-7.81;98.36;96840.47;5047971;28;20016;-46
2021/01/11 04:58:25;;;;;;;;;;;;;;;-7.64;97.58;96845.28;5055623;28;20276;-47
2021/01/11 05:00:51;;;;;;;;;;;;;;;-7.78;97.20;96837.81;5049847;28;20420;-53
2021/01/11 05:03:18;;;;;;;;;;;;;;;-7.73;98.38;96845.44;5054659;28;20345;-46
2021/01/11 05:05:46;;;;;;;;;;;;;;;-7.80;99.86;96843.88;5046325;28;20007;-47
2021/01/11 05:08:13;;;;;;;;;;;;;;;-7.64;99.55;96842.72;5053498;28;19924;-47
2021/01/11 05:10:40;;;;;;;;;;;;;;;-7.48;99.10;96846.72;5049219;28;19921;-47
2021/01/11 05:13:10;;;;;;;;;;;;;;;-7.34;98.54;96846.47;5048763;28;19975;-47
2021/01/11 05:15:38;;;;;;;;;;;;;;;-7.18;97.70;96841.94;5050586;28;20350;-47
2021/01/11 05:18:12;;;;;;;;;;;;;;;-7.15;96.72;96843.63;5052522;28;20031;-46
2021/01/11 05:20:39;;;;;;;;;;;;;;;-7.13;96.74;96849.53;5060099;28;19927;-51
2021/01/11 05:23:09;;;;;;;;;;;;;;;-6.98;96.92;96834.72;5059007;28;20001;-46
2021/01/11 05:25:36;;;;;;;;;;;;;;;-7.07;97.23;96841.75;5060942;28;20011;-47
2021/01/11 05:28:04;;;;;;;;;;;;;;;-6.89;97.39;96853.38;5058728;28;19932;-49
2021/01/11 05:30:32;;;;;;;;;;;;;;;-6.96;97.54;96847.50;5054387;28;19991;-49
2021/01/11 05:32:59;;;;;;;;;;;;;;;-6.97;98.08;96856.91;5060597;28;19916;-46
2021/01/11 05:35:27;;;;;;;;;;;;;;;-6.99;97.78;96857.81;5058718;28;20710;-53
2021/01/11 05:37:54;;;;;;;;;;;;;;;-7.16;97.62;96855.56;5047431;28;20009;-49
2021/01/11 05:40:23;;;;;;;;;;;;;;;-7.19;97.73;96871.00;5052602;28;20412;-51
2021/01/11 05:42:51;;;;;;;;;;;;;;;-7.19;98.03;96874.41;5047577;28;20374;-46
2021/01/11 05:45:19;;;;;;;;;;;;;;;-7.18;98.83;96870.13;5066401;28;19924;-46
2021/01/11 05:47:53;;;;;;;;;;;;;;;-7.14;98.52;96876.03;5046536;28;19921;-47
2021/01/11 05:50:20;;;;;;;;;;;;;;;-6.97;98.53;96884.28;5059572;28;19931;-45
2021/01/11 05:52:47;;;;;;;;;;;;;;;-7.14;97.41;96876.88;5054712;28;20284;-44
2021/01/11 05:55:18;;;;;;;;;;;;;;;-7.13;99.23;96877.72;5053149;28;20409;-47
2021/01/11 05:57:53;;;;;;;;;;;;;;;-7.20;99.76;96889.81;5045865;28;19971;-53
2021/01/11 06:00:20;;;;;;;;;;;;;;;-7.06;99.78;96890.41;5052364;28;19927;-46
2021/01/11 06:02:48;;;;;;;;;;;;;;;-7.03;99.10;96890.34;5048047;28;19990;-50
2021/01/11 06:05:16;;;;;;;;;;;;;;;-6.99;98.85;96888.56;5050948;28;19924;-47
2021/01/11 06:07:43;;;;;;;;;;;;;;;-7.05;98.52;96888.69;5048033;28;20349;-46
2021/01/11 06:10:10;;;;;;;;;;;;;;;-6.96;97.84;96879.09;5059714;28;20058;-46
2021/01/11 06:12:37;;;;;;;;;;;;;;;-6.90;98.11;96879.88;5052300;28;19925;-46
2021/01/11 06:15:05;;;;;;;;;;;;;;;-6.89;97.61;96872.16;5065202;28;19935;-47
2021/01/11 06:17:32;;;;;;;;;;;;;;;-6.88;98.44;96880.69;5052738;28;20337;-45
2021/01/11 06:19:59;;;;;;;;;;;;;;;-6.75;97.87;96879.56;5052705;28;19925;-47
2021/01/11 06:22:41;;;;;;;;;;;;;;;-6.64;97.22;96872.53;5050374;28;20012;-46
2021/01/11 06:25:23;;;;;;;;;;;;;;;-6.52;96.75;96879.97;5057297;28;19924;-48
2021/01/11 06:27:52;;;;;;;;;;;;;;;-6.39;96.27;96872.88;5062233;28;19920;-48
2021/01/11 06:30:24;;;;;;;;;;;;;;;-6.38;96.19;96877.13;5048641;28;19920;-46
2021/01/11 06:32:51;;;;;;;;;;;;;;;-6.36;96.16;96869.41;5052283;28;20013;-46
2021/01/11 06:35:18;;;;;;;;;;;;;;;-6.41;95.27;96874.63;5050328;28;20292;-56
2021/01/11 06:37:45;;;;;;;;;;;;;;;-6.37;95.72;96865.13;5057611;28;20010;-47
2021/01/11 06:40:12;;;;;;;;;;;;;;;-6.23;95.78;96878.50;5057732;28;19920;-46
2021/01/11 06:42:39;;;;;;;;;;;;;;;-6.09;96.25;96876.53;5054593;28;19966;-51
2021/01/11 06:45:06;;;;;;;;;;;;;;;-6.13;95.77;96874.88;5052762;28;19920;-48
2021/01/11 06:47:34;;;;;;;;;;;;;;;-5.99;95.92;96874.56;5052192;28;19927;-48
2021/01/11 06:50:04;;;;;;;;;;;;;;;-6.06;95.74;96879.00;5045649;28;20023;-48
2021/01/11 06:52:34;;;;;;;;;;;;;;;-6.16;95.58;96880.06;5074216;22;19961;-44
2021/01/11 06:55:07;;;;;;;;;;;;;;;-6.26;96.88;96874.31;5070840;28;19920;-42
2021/01/11 06:57:34;;;;;;;;;;;;;;;-6.07;97.25;96876.47;5058457;28;19924;-42
2021/01/11 07:00:01;;;;;;;;;;;;;;;-6.20;97.66;96883.59;5060982;28;20577;-43
2021/01/11 07:02:28;;;;;;;;;;;;;;;-6.03;97.88;96889.19;5067811;28;19924;-44
2021/01/11 07:04:56;;;;;;;;;;;;;;;-6.13;97.69;96892.84;5043619;28;19928;-48
2021/01/11 07:07:23;;;;;;;;;;;;;;;-6.09;97.40;96893.63;5045036;28;20341;-42
2021/01/11 07:09:55;;;;;;;;;;;;;;;-5.98;98.12;96900.22;5050013;28;19927;-45
2021/01/11 07:12:21;;;;;;;;;;;;;;;-5.79;97.69;96905.75;5048254;28;19928;-45
2021/01/11 07:14:55;;;;;;;;;;;;;;;-5.61;97.33;96916.50;5065117;28;20367;-45
2021/01/11 07:17:34;;;;;;;;;;;;;;;-5.77;96.20;96909.16;5048135;28;19920;-42
2021/01/11 07:20:03;;;;;;;;;;;;;;;-5.66;96.47;96908.06;5058570;28;20369;-48
2021/01/11 07:22:29;;;;;;;;;;;;;;;-5.91;95.99;96916.31;5061512;28;20005;-43
2021/01/11 07:24:56;;;;;;;;;;;;;;;-5.70;96.43;96917.56;5063521;28;20291;-45
2021/01/11 07:27:23;;;;;;;;;;;;;;;-5.78;95.52;96920.31;5063835;28;19928;-52
2021/01/11 07:29:49;;;;;;;;;;;;;;;-5.72;96.96;96914.16;5059804;28;20043;-51
2021/01/11 07:32:16;;;;;;;;;;;;;;;-5.51;96.45;96918.81;5066511;28;20386;-48
2021/01/11 07:34:43;;;;;;;;;;;;;;;-5.48;96.21;96917.91;5063367;28;19920;-47
2021/01/11 07:37:13;;;;;;;;;;;;;;;-5.25;95.61;96919.94;5069119;28;20284;-50
2021/01/11 07:39:40;;;;;;;;;;;;;;;-5.33;94.98;96914.13;5063939;28;20086;-47
2021/01/11 07:42:07;;;;;;;;;;;;;;;-5.09;94.92;96917.84;5067425;28;19931;-46
2021/01/11 07:44:35;;;;;;;;;;;;;;;-5.23;93.87;96915.59;5067560;28;19929;-48
2021/01/11 07:47:07;;;;;;;;;;;;;;;-5.47;93.66;96919.59;5043999;28;19959;-45
2021/01/11 07:49:36;;;;;;;;;;;;;;;-5.38;94.26;96923.66;5057724;28;20632;-46
2021/01/11 07:52:03;;;;;;;;;;;;;;;-5.70;94.24;96924.44;5040392;28;20487;-51
2021/01/11 07:54:31;;;;;;;;;;;;;;;-5.40;95.11;96917.72;5045216;28;19925;-49
2021/01/11 07:56:58;;;;;;;;;;;;;;;-5.09;94.18;96920.41;5058944;28;20011;-51
2021/01/11 07:59:24;;;;;;;;;;;;;;;-5.20;93.49;96925.78;5045581;28;19925;-48
2021/01/11 08:01:51;;;;;;;;;;;;;;;-5.34;95.12;96920.13;5050424;28;19924;-49
2021/01/11 08:04:18;;;;;;;;;;;;;;;-5.07;94.48;96924.59;5061066;28;19956;-48
2021/01/11 08:06:50;;;;;;;;;;;;;;;-4.71;94.71;96915.97;5064835;28;19920;-52
2021/01/11 08:09:17;;;;;;;;;;;;;;;-4.47;93.33;96920.50;5070427;28;19926;-52
2021/01/11 08:11:45;;;;;;;;;;;;;;;-4.27;92.02;96919.91;5063299;28;20391;-49
2021/01/11 08:14:12;;;;;;;;;;;;;;;-4.62;91.24;96926.88;5064119;28;19921;-48
2021/01/11 08:16:39;;;;;;;;;;;;;;;-4.57;92.10;96922.47;5063355;28;20050;-47
2021/01/11 08:19:08;;;;;;;;;;;;;;;-5.11;93.55;96932.44;5062965;28;20375;-52
2021/01/11 08:21:35;;;;;;;;;;;;;;;-5.64;95.84;96932.84;5060281;28;19920;-46
2021/01/11 08:24:05;;;;;;;;;;;;;;;-4.70;94.07;96926.25;5065173;28;19925;-49
2021/01/11 08:26:33;;;;;;;;;;;;;;;-4.87;92.74;96925.84;5064383;28;19927;-49
2021/01/11 08:29:01;;;;;;;;;;;;;;;-4.99;93.00;96939.00;5063903;28;19967;-48
2021/01/11 08:31:27;;;;;;;;;;;;;;;-4.88;93.22;96935.28;5067134;28;19920;-49
2021/01/11 08:33:54;;;;;;;;;;;;;;;-4.84;93.40;96933.47;5064702;28;20302;-48
2021/01/11 08:36:22;;;;;;;;;;;;;;;-4.55;92.19;96927.56;5062445;28;20015;-51
2021/01/11 08:39:04;;;;;;;;;;;;;;;-4.24;91.17;96919.81;5060425;28;19993;-48
2021/01/11 08:41:32;;;;;;;;;;;;;;;-4.73;90.28;96928.06;5065000;28;19951;-51
2021/01/11 08:43:58;;;;;;;;;;;;;;;-4.62;89.75;96926.03;5065155;28;19951;-50
2021/01/11 08:46:36;;;;;;;;;;;;;;;-4.39;89.21;96933.13;5066659;28;19938;-47
2021/01/11 08:49:05;;;;;;;;;;;;;;;-4.01;87.55;96937.22;5063654;28;19927;-49
2021/01/11 08:51:32;;;;;;;;;;;;;;;-4.31;88.55;96936.34;5060448;28;20007;-50
2021/01/11 08:53:59;;;;;;;;;;;;;;;-3.83;89.58;96946.97;5042082;28;20307;-46
2021/01/11 08:56:28;;;;;;;;;;;;;;;-3.89;87.81;96947.16;5060456;28;19920;-50
2021/01/11 08:58:56;;;;;;;;;;;;;;;-3.95;87.18;96946.50;5057776;28;19931;-50
2021/01/11 09:01:24;;;;;;;;;;;;;;;-4.24;86.43;96953.28;5063567;28;20015;-46
2021/01/11 09:03:55;;;;;;;;;;;;;;;-4.61;88.96;96951.75;5066802;28;20014;-52
2021/01/11 09:06:34;;;;;;;;;;;;;;;-4.40;90.02;96949.47;5072797;28;19920;-49
2021/01/11 09:09:03;;;;;;;;;;;;;;;-4.05;88.18;96948.50;5062239;28;19927;-49
2021/01/11 09:11:30;;;;;;;;;;;;;;;-3.90;88.41;96950.63;5068643;28;19930;-48
2021/01/11 09:14:03;;;;;;;;;;;;;;;-4.09;87.65;96954.63;5068775;28;19921;-47
2021/01/11 09:16:31;;;;;;;;;;;;;;;-3.49;88.56;96958.00;5061200;28;22036;-47
2021/01/11 09:19:05;;;;;;;;;;;;;;;-3.86;86.10;96966.81;5063215;28;19920;-49
2021/01/11 09:21:32;;;;;;;;;;;;;;;-3.66;86.47;96958.50;5059607;28;19920;-52
2021/01/11 09:23:59;;;;;;;;;;;;;;;-3.78;86.88;96957.16;5055731;28;19920;-46
2021/01/11 09:26:25;;;;;;;;;;;;;;;-3.48;85.62;96964.84;5064959;28;19969;-46
2021/01/11 09:28:52;;;;;;;;;;;;;;;-3.74;85.73;96974.22;5054577;28;20406;-50
2021/01/11 09:31:19;;;;;;;;;;;;;;;-3.65;85.06;96975.66;5053713;28;19928;-48
2021/01/11 09:33:46;;;;;;;;;;;;;;;-3.61;86.21;96977.28;5044550;28;20295;-49
2021/01/11 09:36:13;;;;;;;;;;;;;;;-3.30;84.96;96981.47;5045412;28;19921;-52
2021/01/11 09:38:40;;;;;;;;;;;;;;;-3.39;83.48;96975.72;5032877;28;19920;-48
2021/01/11 09:41:07;;;;;;;;;;;;;;;-3.03;82.79;96977.19;5056022;28;19920;-48
2021/01/11 09:43:34;;;;;;;;;;;;;;;-2.49;82.33;96974.53;5051337;28;19939;-50
2021/01/11 09:46:00;;;;;;;;;;;;;;;-2.21;79.70;96969.25;5040104;28;19933;-47
2021/01/11 09:48:27;;;;;;;;;;;;;;;-2.99;80.55;96974.47;5051698;28;19932;-49
2021/01/11 09:50:55;;;;;;;;;;;;;;;-2.77;80.45;96969.47;5045026;28;19920;-49
2021/01/11 09:53:23;;;;;;;;;;;;;;;-2.95;79.95;96973.50;5041356;28;20402;-51
2021/01/11 09:55:50;;;;;;;;;;;;;;;-2.70;79.63;96978.69;5038586;28;20520;-48
2021/01/11 09:58:17;;;;;;;;;;;;;;;-2.59;79.80;96962.81;5036850;28;19921;-48
2021/01/11 10:00:43;;;;;;;;;;;;;;;-2.57;77.66;96958.47;5035983;28;19924;-46
2021/01/11 10:03:10;;;;;;;;;;;;;;;-2.24;78.33;96976.25;5039517;28;19990;-49
2021/01/11 10:05:37;;;;;;;;;;;;;;;-2.60;77.57;96966.31;5056926;28;19967;-48
2021/01/11 10:08:04;;;;;;;;;;;;;;;-2.37;79.00;96968.13;5047387;28;19936;-48
2021/01/11 10:10:31;;;;;;;;;;;;;;;-2.40;79.09;96956.16;5065190;28;19931;-51
2021/01/11 10:12:58;;;;;;;;;;;;;;;-2.59;78.56;96959.41;5046327;28;19920;-46
2021/01/11 10:15:25;;;;;;;;;;;;;;;-2.82;78.49;96966.19;5064835;28;20375;-49
2021/01/11 10:17:52;;;;;;;;;;;;;;;-3.43;81.67;96966.41;5061099;28;19920;-46
2021/01/11 10:20:18;;;;;;;;;;;;;;;-2.63;80.91;96963.84;5058334;28;19921;-48
2021/01/11 10:23:03;;;;;;;;;;;;;;;-2.30;78.94;96956.66;5062192;28;20004;-46
2021/01/11 10:25:30;;;;;;;;;;;;;;;-1.70;77.27;96952.75;5063319;28;20023;-48
2021/01/11 10:27:57;;;;;;;;;;;;;;;-3.35;78.22;96948.09;5062121;28;19929;-47
2021/01/11 10:30:24;;;;;;;;;;;;;;;-2.08;78.46;96924.91;5059784;28;19928;-48
2021/01/11 10:32:51;;;;;;;;;;;;;;;-2.35;77.83;96927.56;5059849;28;19925;-47
2021/01/11 10:35:18;;;;;;;;;;;;;;;-1.98;76.39;96923.66;5061209;28;20008;-51
2021/01/11 10:37:45;;;;;;;;;;;;;;;-2.21;76.16;96925.31;5055790;28;19925;-54
2021/01/11 10:40:13;;;;;;;;;;;;;;;-1.94;75.80;96922.63;5063025;28;19932;-49
2021/01/11 10:42:39;;;;;;;;;;;;;;;-1.86;74.76;96927.50;5055040;28;20019;-48
2021/01/11 10:45:08;;;;;;;;;;;;;;;-1.57;73.38;96923.84;5065771;28;20348;-50
2021/01/11 10:47:35;;;;;;;;;;;;;;;-1.02;72.34;96922.50;5052526;28;20397;-49
2021/01/11 10:50:01;;;;;;;;;;;;;;;-1.18;71.96;96923.16;5056875;28;19928;-49
2021/01/11 10:52:28;;;;;;;;;;;;;;;-1.22;71.54;96918.13;5060832;28;19927;-46
2021/01/11 10:54:55;;;;;;;;;;;;;;;-1.46;73.08;96911.34;5066487;28;19920;-52
2021/01/11 10:57:22;;;;;;;;;;;;;;;-2.09;73.17;96905.97;5064654;28;19921;-48
2021/01/11 10:59:48;;;;;;;;;;;;;;;-2.30;75.83;96896.44;5064288;28;19920;-48
2021/01/11 11:02:16;;;;;;;;;;;;;;;-2.49;77.55;96898.81;5063171;28;20567;-47
2021/01/11 11:04:46;;;;;;;;;;;;;;;-2.72;77.77;96891.84;5064632;28;19934;-49
2021/01/11 11:07:12;;;;;;;;;;;;;;;-2.41;78.00;96892.50;5059937;28;19920;-46
2021/01/11 11:09:40;;;;;;;;;;;;;;;-3.13;80.17;96894.13;5060932;28;20439;-48
2021/01/11 11:12:07;;;;;;;;;;;;;;;-3.38;81.29;96887.16;5070413;28;20023;-48
2021/01/11 11:14:33;;;;;;;;;;;;;;;-3.75;82.30;96887.50;5059859;28;19986;-48
2021/01/11 11:17:00;;;;;;;;;;;;;;;-3.42;80.97;96883.00;5064096;28;19927;-46
2021/01/11 11:19:28;;;;;;;;;;;;;;;-2.73;79.09;96877.28;5064231;28;19920;-52
2021/01/11 11:21:55;;;;;;;;;;;;;;;-2.38;78.56;96870.84;5062709;28;20015;-47
2021/01/11 11:24:22;;;;;;;;;;;;;;;-2.06;76.88;96877.44;5063421;28;20582;-44
2021/01/11 11:26:49;;;;;;;;;;;;;;;-2.74;77.93;96891.09;5067075;28;19924;-50
2021/01/11 11:29:16;;;;;;;;;;;;;;;-2.11;75.54;96883.66;5053266;28;20410;-47
2021/01/11 11:31:43;;;;;;;;;;;;;;;-1.21;72.07;96882.72;5064396;28;20271;-51
2021/01/11 11:34:10;;;;;;;;;;;;;;;-1.74;73.40;96889.13;5059104;28;19952;-49
2021/01/11 11:36:37;;;;;;;;;;;;;;;-1.26;72.80;96879.50;5051980;28;19982;-50
2021/01/11 11:39:04;;;;;;;;;;;;;;;-1.52;72.11;96886.53;5062743;28;20450;-48
2021/01/11 11:41:31;;;;;;;;;;;;;;;-1.57;71.59;96882.47;5062148;28;19920;-44
2021/01/11 11:43:58;;;;;;;;;;;;;;;-1.31;71.94;96891.75;5065500;28;20330;-51
2021/01/11 11:46:24;;;;;;;;;;;;;;;-1.00;71.65;96878.41;5062234;28;19978;-47
2021/01/11 11:48:55;;;;;;;;;;;;;;;-1.39;71.90;96871.38;5065591;28;19924;-52
2021/01/11 11:51:22;;;;;;;;;;;;;;;-0.79;71.19;96861.13;5064064;28;20422;-50
2021/01/11 11:53:49;;;;;;;;;;;;;;;-1.08;70.38;96855.44;5066574;28;19920;-47
2021/01/11 11:56:16;;;;;;;;;;;;;;;-1.29;72.73;96862.34;5063961;28;19976;-46
2021/01/11 11:58:43;;;;;;;;;;;;;;;-1.22;69.96;96852.59;5067148;28;19926;-46
2021/01/11 12:01:09;;;;;;;;;;;;;;;-1.09;69.96;96846.00;5057472;28;20009;-52
2021/01/11 12:03:36;;;;;;;;;;;;;;;-1.93;71.94;96844.19;5064273;28;20282;-47
2021/01/11 12:06:03;;;;;;;;;;;;;;;-1.94;72.85;96845.09;5064127;28;19927;-46
2021/01/11 12:08:30;;;;;;;;;;;;;;;-1.74;73.19;96840.00;5061584;28;20425;-50
2021/01/11 12:10:58;;;;;;;;;;;;;;;-1.37;71.95;96833.38;5060411;28;20378;-47
2021/01/11 12:13:25;;;;;;;;;;;;;;;-1.92;71.74;96832.97;5067713;28;19920;-47
2021/01/11 12:15:52;;;;;;;;;;;;;;;-2.10;72.73;96837.09;5057464;28;19924;-48
2021/01/11 12:18:20;;;;;;;;;;;;;;;-1.96;73.06;96823.69;5065025;28;19943;-48
2021/01/11 12:20:46;;;;;;;;;;;;;;;-2.05;73.54;96830.03;5060826;28;20386;-51
2021/01/11 12:23:14;;;;;;;;;;;;;;;-1.82;73.37;96823.97;5064534;28;19979;-47
2021/01/11 12:25:41;;;;;;;;;;;;;;;-2.21;73.57;96826.31;5056758;28;19927;-47
2021/01/11 12:28:08;;;;;;;;;;;;;;;-1.92;74.11;96817.47;5064732;28;19924;-49
2021/01/11 12:30:35;;;;;;;;;;;;;;;-1.26;71.49;96804.47;5070842;28;19951;-50
2021/01/11 12:33:02;;;;;;;;;;;;;;;-1.11;69.81;96803.81;5059825;28;19952;-48
2021/01/11 12:38:46;;;;;;;;;;;;;;;-1.69;72.54;96794.16;5058350;28;19955;-44
2021/01/11 12:41:15;;;;;;;;;;;;;;;-1.84;72.99;96806.84;5055073;28;19966;-47
2021/01/11 12:43:42;;;;;;;;;;;;;;;-1.84;73.34;96805.09;5064013;28;19920;-46
2021/01/11 12:46:10;;;;;;;;;;;;;;;-1.87;73.61;96800.03;5056915;28;20399;-51
2021/01/11 12:48:37;;;;;;;;;;;;;;;-1.14;71.21;96782.41;5061864;28;20032;-50
2021/01/11 12:51:05;;;;;;;;;;;;;;;-1.56;71.40;96794.47;5068799;28;19939;-49
2021/01/11 12:53:32;;;;;;;;;;;;;;;-1.46;70.94;96787.19;5060303;28;19947;-52
2021/01/11 12:55:58;;;;;;;;;;;;;;;-1.28;72.00;96794.16;5065062;28;19973;-48